»·PEaware :: N196EC KLAX-KSNA

N196EC :: KLAX-KSNA

FLIGHT INFORMATION

Flight Status: Arrived
Operator: Privately registered:
United States
More flights under this callsign
Pilot: Adrián R. (20842)
Aircraft: BEECH AIRCRAFT DEBONAIR BONANZA
(BE33)
More flights by this aircraft type
Origin: KLAX Los Angeles Intl
United States
Destination: KSNA John Wayne-Orange Co
United States
More flights between these airports :: More routes between these airports
Route: SLI8 SLI
File this flight plan on PilotEdge
Remarks: TEC ROUTE LAXP55, I6 RATING
Altitude:
(Current/Filed)
4,000ft
Speed:
(Current/Filed)
160kts
Departed: 06-Nov-18 08:40 AM
Arrived: 06-Nov-18 09:14 AM
Distance/Time
Traveled:
31nm/0:34
Distance/Time
To Go:
Arrived

Flight Plot

Page will automatically refresh every two minutes.

Flight plan parsing failed; only flown route is shown


Map Options




Map Legend


Flown Route
Filed Route
Departure Airport
Arrival Airport
Navaid (VOR, NDB)
Fix

Horizontal Profiles

Position Reports

Time Latitude Longitude Heading Altitude Ground
Speed
06-Nov-18 08:08 33.932734 -118.397678 304 109ft 0kts
06-Nov-18 08:09 33.932734 -118.397678 304 109ft 0kts
06-Nov-18 08:10 33.932734 -118.397678 304 109ft 0kts
06-Nov-18 08:11 33.932734 -118.397678 304 109ft 0kts
06-Nov-18 08:12 33.932734 -118.397678 304 109ft 0kts
06-Nov-18 08:13 33.932734 -118.397678 304 109ft 0kts
06-Nov-18 08:14 33.932734 -118.397678 304 109ft 0kts
06-Nov-18 08:15 33.932734 -118.397678 304 109ft 0kts
06-Nov-18 08:16 33.932734 -118.397678 304 109ft 0kts
06-Nov-18 08:17 33.932734 -118.397678 304 109ft 0kts
06-Nov-18 08:18 33.932734 -118.397678 304 109ft 0kts
06-Nov-18 08:19 33.932734 -118.397678 304 109ft 0kts
06-Nov-18 08:20 33.932734 -118.397678 304 109ft 0kts
06-Nov-18 08:21 33.932734 -118.397678 304 109ft 0kts
06-Nov-18 08:22 33.932734 -118.397678 304 109ft 0kts
06-Nov-18 08:23 33.932734 -118.397678 304 109ft 0kts
06-Nov-18 08:24 33.932734 -118.397678 304 109ft 0kts
06-Nov-18 08:25 33.932734 -118.397678 304 109ft 0kts
06-Nov-18 08:26 33.932734 -118.397678 304 109ft 0kts
06-Nov-18 08:27 33.932734 -118.397678 304 109ft 0kts
06-Nov-18 08:28 33.932734 -118.397678 304 109ft 0kts
06-Nov-18 08:29 33.932734 -118.397678 304 109ft 0kts
06-Nov-18 08:30 33.932734 -118.397678 304 109ft 0kts
06-Nov-18 08:31 33.932734 -118.397678 304 109ft 0kts
06-Nov-18 08:32 33.932734 -118.397678 304 109ft 0kts
06-Nov-18 08:33 33.932734 -118.397678 304 109ft 0kts
06-Nov-18 08:34 33.932734 -118.397678 303 109ft 0kts
06-Nov-18 08:35 33.932734 -118.397678 304 109ft 0kts
06-Nov-18 08:36 33.932889 -118.397842 336 109ft 5kts
06-Nov-18 08:37 33.934918 -118.394569 82 109ft 24kts
06-Nov-18 08:38 33.935740 -118.386539 83 109ft 22kts
06-Nov-18 08:39 33.936462 -118.382743 352 109ft 0kts
06-Nov-18 08:40 33.936462 -118.382743 352 109ft 0kts
06-Nov-18 08:41 33.936462 -118.382743 352 109ft 0kts
06-Nov-18 08:42 33.936523 -118.382754 351 109ft 2kts
06-Nov-18 08:43 33.936314 -118.392453 260 283ft 83kts
06-Nov-18 08:44 33.932907 -118.426820 263 1265ft 114kts
06-Nov-18 08:45 33.923918 -118.456456 215 2710ft 88kts
06-Nov-18 08:46 33.903765 -118.472897 214 3808ft 97kts
06-Nov-18 08:47 33.871353 -118.488188 173 4000ft 157kts
06-Nov-18 08:48 33.825870 -118.482175 166 3987ft 169kts
06-Nov-18 08:49 33.806084 -118.437348 93 3989ft 165kts
06-Nov-18 08:50 33.804021 -118.383528 89 3989ft 164kts
06-Nov-18 08:51 33.802202 -118.333129 91 3990ft 164kts
06-Nov-18 08:52 33.799653 -118.278694 91 3979ft 162kts
06-Nov-18 08:53 33.796777 -118.225761 92 3979ft 158kts
06-Nov-18 08:54 33.791923 -118.173819 94 3979ft 156kts
06-Nov-18 08:55 33.788140 -118.122439 92 3979ft 156kts
06-Nov-18 08:56 33.784449 -118.070575 92 3978ft 156kts
06-Nov-18 08:57 33.796419 -118.022409 63 3978ft 153kts
06-Nov-18 08:58 33.814552 -117.977222 62 3978ft 151kts
06-Nov-18 08:59 33.832639 -117.932233 62 3978ft 151kts
06-Nov-18 09:00 33.850750 -117.887122 62 3978ft 151kts
06-Nov-18 09:01 33.868970 -117.841680 62 3978ft 150kts
06-Nov-18 09:02 33.887098 -117.796429 62 3981ft 150kts
06-Nov-18 09:03 33.904734 -117.751975 63 3984ft 151kts
06-Nov-18 09:04 33.922749 -117.706944 55 3985ft 151kts
06-Nov-18 09:05 33.960631 -117.679870 28 3520ft 167kts
06-Nov-18 09:06 33.998055 -117.692238 292 3491ft 164kts
06-Nov-18 09:07 33.977452 -117.732218 183 3491ft 161kts
06-Nov-18 09:08 33.934797 -117.718534 161 3490ft 160kts
06-Nov-18 09:09 33.892687 -117.730655 206 3382ft 169kts
06-Nov-18 09:10 33.852846 -117.756223 206 3387ft 157kts
06-Nov-18 09:11 33.813217 -117.781521 206 2823ft 161kts
06-Nov-18 09:12 33.775200 -117.805710 205 2178ft 152kts
06-Nov-18 09:13 33.745395 -117.824564 204 1489ft 100kts
06-Nov-18 09:14 33.724459 -117.837893 202 994ft 79kts
06-Nov-18 09:15 33.705632 -117.849934 202 619ft 76kts
06-Nov-18 09:16 33.687033 -117.861657 203 210ft 76kts
06-Nov-18 09:17 33.675927 -117.869756 296 59ft 0kts
06-Nov-18 09:18 33.675900 -117.870067 237 59ft 5kts
06-Nov-18 09:19 33.676270 -117.871835 218 60ft 0kts
06-Nov-18 09:20 33.676269 -117.871835 218 60ft 0kts
06-Nov-18 09:21 33.676354 -117.871760 211 60ft 0kts

Navigation Log

Ident Type
Flight plan parsing failed, navigation log unavailable